Portada
METAR-TAF:

METAR-TAF

Aeropuertos :

Cazaux, Francia

latitud: 44-32N, longitud: 001-08W, altitud: 25 m

Observación

El informe se hizo hace 24 minutos, a las 08:00 UTC
Viento 2 kt del norte
Temperatura 4°C
Humedad 93%
Presión 1031 hPa
Visibilidad 10 km o más
sin nubes por debajo de 1500 m y sin presencia de cumulonimbus.

METAR: LFBC 220800Z AUTO 36002KT CAVOK 04/03 Q1031 NOSIG

Hora: 09:24 (08:24 UTC)

Pronóstico

El informe se hizo hace 3 horas y 16 minutos, a las 05:08 UTC
Pronóstico válido del 22 a las 05 UTC al 23 a las 03 UTC
Viento 5 kt del este
Visibilidad 10 km o más
sin nubes por debajo de 1500 m y sin presencia de cumulonimbus.

TAF: LFBC 220508Z 2205/2303 09005KT CAVOK

Observaciones y pronósticos meteorológicos de más de 4000 aeropuertos (mensajes METAR y TAF).

Los puntos amarillos y rojos representan las estaciones disponibles.

Ponga el ratón en el punto deseado para ver el nombre de la estación.

Haga clic para ver las observaciones y los pronósticos meteorológicos.

Para cambiar el mapa : haga clic en los botones verdes con una cruz de color negro para hacer un zoom, en el botón verde con un guión para alejar o en las flechas verdes para mapas adyacentes.


METAR-TAF: